KSTS/STS METAR and TAF weather

Enter ICAO airport designator
Station Type Date Time Source
KSTS METAR 2021/04/18 02:53 UTC NOAA

KSTS 180253Z AUTO 15006KT 10SM CLR 17/07 A3002 RMK AO2 SLP161 T01720072 53008


Station Type Date Time Source
KSTS Decoded METAR 2021/04/18 02:53 UTC NOAA

SANTA ROSA SONOMA COUNTY, CA, United States (KSTS) 38-30N 122-49W 39M
Apr 17, 2021 - 10:53 PM EDT / 2021.04.18 0253 UTC
Wind: from the SSE (150 degrees) at 7 MPH (6 KT):0
Visibility: 10 mile(s):0
Sky conditions: clear
Temperature: 63.0 F (17.2 C)
Dew Point: 45.0 F (7.2 C)
Relative Humidity: 51%
Pressure (altimeter): 30.02 in. Hg (1016 hPa)
Pressure tendency: 0.02 inches (0.8 hPa) higher than three hours ago
ob: KSTS 180253Z AUTO 15006KT 10SM CLR 17/07 A3002 RMK AO2 SLP161 T01720072 53008
cycle: 3

Station Type Date Time Source
KSTS TAF 2021/04/17 18:27 UTC NOAA

TAF KSTS 171724Z 1718/1818 VRB04KT P6SM SKC
FM172000 03009KT P6SM SKC
FM180300 VRB04KT P6SM SKC
FM180800 00000KT P6SM FEW002
FM181400 VRB03KT P6SM SKC

Example: see airport list